Time;durP1;ratioP1;P1;durP2;ratioP2;P2;SDS_P1;SDS_P2;PMS_P1;PMS_P2;Temp;Humidity;BMP_temperature;BMP_pressure;BME280_temperature;BME280_humidity;BME280_pressure;Samples;Min_cycle;Max_cycle;Signal;HPM_P1;HPM_P2
2021/11/17 02:26:20;;;;;;;46.70;35.70;;;;;;;1.12;91.43;101151.20;208524;1322;138501;-74
2021/11/17 02:31:45;;;;;;;48.20;33.40;;;;;;;1.09;91.62;101139.02;209707;1322;138320;-75
2021/11/17 02:36:56;;;;;;;47.00;35.50;;;;;;;1.10;92.19;101136.89;210928;1323;138130;-74
2021/11/17 02:42:20;;;;;;;50.10;35.40;;;;;;;1.19;91.91;101127.59;210197;1323;138060;-74
2021/11/17 02:53:05;;;;;;;44.00;34.80;;;;;;;1.10;92.13;101131.15;210735;1312;138587;-76
2021/11/17 02:58:17;;;;;;;50.80;37.60;;;;;;;1.20;91.95;101123.01;209590;1323;138901;-75
2021/11/17 03:03:55;;;;;;;50.50;37.20;;;;;;;1.26;91.60;101117.55;210462;1322;138089;-72
2021/11/17 03:09:21;;;;;;;52.80;38.10;;;;;;;1.28;91.46;101123.31;209613;1326;139520;-75
2021/11/17 03:14:40;;;;;;;47.70;35.80;;;;;;;1.29;91.10;101124.32;209257;1319;138442;-75
2021/11/17 03:20:14;;;;;;;46.30;35.90;;;;;;;1.34;91.10;101129.26;209647;1324;138465;-74
2021/11/17 03:25:25;;;;;;;48.80;36.10;;;;;;;1.23;90.96;101131.04;209763;1328;139109;-76
2021/11/17 03:30:43;;;;;;;36.90;27.80;;;;;;;0.96;90.81;101139.80;209552;1324;138168;-75
2021/11/17 03:36:01;;;;;;;42.60;32.80;;;;;;;0.77;91.62;101144.55;209902;1325;138592;-74
2021/11/17 03:41:19;;;;;;;45.50;33.00;;;;;;;0.75;91.87;101156.94;209800;1322;138848;-75
2021/11/17 03:46:37;;;;;;;43.60;32.90;;;;;;;0.91;91.77;101153.42;211147;1326;139344;-75
2021/11/17 03:52:12;;;;;;;40.20;31.60;;;;;;;0.94;91.51;101144.45;209705;1325;137996;-77
2021/11/17 03:57:28;;;;;;;41.50;32.50;;;;;;;0.86;91.24;101147.05;209655;1331;139170;-75
2021/11/17 04:02:51;;;;;;;38.30;29.50;;;;;;;0.75;91.31;101140.45;209622;1322;138262;-74
2021/11/17 04:08:13;;;;;;;39.30;30.90;;;;;;;0.82;91.82;101129.89;209045;1324;138216;-76
2021/11/17 04:13:20;;;;;;;40.70;30.00;;;;;;;0.87;91.03;101118.54;208832;1323;138772;-75
2021/11/17 04:18:28;;;;;;;39.80;29.40;;;;;;;0.93;90.78;101112.04;209383;1324;138973;-74
2021/11/17 04:24:19;;;;;;;39.40;31.10;;;;;;;0.85;90.67;101117.61;209966;1324;138667;-76
2021/11/17 04:29:29;;;;;;;39.20;28.90;;;;;;;0.81;90.39;101116.06;210416;1312;137827;-74
2021/11/17 04:34:50;;;;;;;38.00;27.20;;;;;;;0.76;90.38;101103.13;209167;1322;138356;-70
2021/11/17 04:39:54;;;;;;;35.30;27.90;;;;;;;0.73;90.35;101092.68;209196;1323;138974;-71
2021/11/17 04:45:08;;;;;;;33.90;26.60;;;;;;;0.67;89.91;101092.63;209067;1322;138611;-71
2021/11/17 04:50:50;;;;;;;36.60;28.00;;;;;;;0.54;90.34;101086.84;208469;1323;138734;-74
2021/11/17 04:55:54;;;;;;;31.50;22.60;;;;;;;0.47;90.56;101076.05;209223;1324;138213;-73
2021/11/17 05:01:16;;;;;;;35.90;28.20;;;;;;;0.37;90.99;101069.23;209734;1324;138287;-77
2021/11/17 05:06:24;;;;;;;36.40;27.30;;;;;;;0.45;90.55;101068.85;210324;1329;138982;-74
2021/11/17 05:11:40;;;;;;;33.60;26.20;;;;;;;0.53;90.71;101068.31;209774;1324;138702;-72
2021/11/17 05:16:48;;;;;;;35.60;27.20;;;;;;;0.52;90.18;101061.41;209548;1326;138606;-75
2021/11/17 05:21:52;;;;;;;39.00;26.90;;;;;;;0.48;90.49;101066.61;209700;1327;138335;-62
2021/11/17 05:27:17;;;;;;;35.40;26.50;;;;;;;0.43;90.56;101066.01;208760;1323;138682;-75
2021/11/17 05:32:21;;;;;;;33.50;25.80;;;;;;;0.44;90.37;101068.20;207885;1331;139086;-75
2021/11/17 05:37:26;;;;;;;35.90;25.00;;;;;;;0.45;90.29;101067.83;208578;1326;138473;-75
2021/11/17 05:42:46;;;;;;;33.70;25.40;;;;;;;0.30;90.55;101060.21;208929;1329;138014;-73
2021/11/17 05:47:54;;;;;;;36.20;26.30;;;;;;;0.39;90.78;101063.76;208580;1329;138154;-74
2021/11/17 05:52:58;;;;;;;36.70;27.20;;;;;;;0.29;90.57;101063.70;209997;1324;138794;-63
2021/11/17 05:58:28;;;;;;;34.70;25.50;;;;;;;0.24;90.77;101064.96;210113;1323;138696;-73
2021/11/17 06:03:59;;;;;;;30.00;24.40;;;;;;;0.26;90.56;101062.80;209967;1327;139251;-76
2021/11/17 06:09:06;;;;;;;32.20;24.50;;;;;;;0.29;90.77;101072.89;210153;1326;138518;-71
2021/11/17 06:14:17;;;;;;;28.80;23.20;;;;;;;0.33;90.21;101073.42;208794;1331;138035;-74
2021/11/17 06:19:23;;;;;;;27.20;20.70;;;;;;;0.24;90.47;101080.02;209439;1312;138651;-76
2021/11/17 06:24:27;;;;;;;33.90;23.60;;;;;;;0.23;90.48;101076.64;211305;1322;137853;-74
2021/11/17 06:35:02;;;;;;;29.10;22.40;;;;;;;0.32;90.14;101076.04;211373;1311;138054;-75
2021/11/17 06:40:13;;;;;;;28.70;21.50;;;;;;;0.40;89.96;101071.48;208089;1325;138901;-75
2021/11/17 06:45:33;;;;;;;31.50;23.50;;;;;;;0.45;89.75;101068.35;209723;1325;137491;-74
2021/11/17 06:50:44;;;;;;;25.10;20.60;;;;;;;0.53;89.41;101067.95;209143;1325;137719;-74
2021/11/17 06:55:50;;;;;;;26.90;21.20;;;;;;;0.65;89.29;101069.67;210019;1326;138067;-77
2021/11/17 07:00:54;;;;;;;28.30;23.00;;;;;;;0.70;88.87;101075.30;209505;1326;137491;-75
2021/11/17 07:05:55;;;;;;;29.40;23.60;;;;;;;0.66;88.93;101065.09;209634;1325;138248;-76
2021/11/17 07:10:57;;;;;;;29.30;22.60;;;;;;;0.77;88.96;101064.73;209750;1326;137778;-76
2021/11/17 07:16:03;;;;;;;28.30;21.40;;;;;;;0.90;88.64;101056.63;208781;1322;2037583;-76
2021/11/17 07:21:09;;;;;;;26.60;21.10;;;;;;;1.09;88.35;101065.96;209431;1322;137363;-75
2021/11/17 07:26:15;;;;;;;29.90;23.20;;;;;;;1.02;88.31;101070.30;209846;1325;138364;-74
2021/11/17 07:31:20;;;;;;;28.90;23.00;;;;;;;0.95;88.64;101079.99;209573;1325;138420;-76
2021/11/17 07:36:24;;;;;;;33.90;25.50;;;;;;;0.95;88.64;101073.41;209229;1316;139326;-75
2021/11/17 07:41:32;;;;;;;32.00;23.50;;;;;;;0.91;89.06;101073.27;211661;1313;138212;-75
2021/11/17 07:46:37;;;;;;;34.40;24.80;;;;;;;0.92;89.36;101081.72;209065;1320;138345;-74
2021/11/17 07:51:39;;;;;;;30.20;23.50;;;;;;;0.88;89.40;101080.70;209610;1323;139196;-74
2021/11/17 07:56:42;;;;;;;31.30;22.50;;;;;;;0.88;89.27;101079.29;210527;1326;139730;-75
2021/11/17 08:01:50;;;;;;;30.70;24.00;;;;;;;0.95;89.32;101084.34;211406;1323;139471;-75
2021/11/17 08:06:55;;;;;;;26.80;21.80;;;;;;;0.97;89.23;101087.36;211439;1309;138399;-75
2021/11/17 08:12:02;;;;;;;33.70;24.70;;;;;;;0.93;89.34;101090.66;210043;1325;138093;-76
2021/11/17 08:17:11;;;;;;;29.10;22.10;;;;;;;0.97;89.49;101090.45;210672;1322;137818;-76
2021/11/17 08:22:16;;;;;;;32.30;24.70;;;;;;;1.02;89.07;101092.33;209941;1323;139112;-74
2021/11/17 08:27:21;;;;;;;33.00;22.90;;;;;;;1.09;88.97;101089.17;211718;1322;139179;-76
2021/11/17 08:32:28;;;;;;;29.70;22.30;;;;;;;1.17;89.08;101093.48;211076;1320;138517;-74
2021/11/17 08:37:32;;;;;;;30.90;24.10;;;;;;;1.34;89.05;101094.75;210733;1322;138817;-75
2021/11/17 08:42:35;;;;;;;31.80;24.60;;;;;;;1.52;89.11;101094.33;211290;1309;138182;-75
2021/11/17 08:47:41;;;;;;;28.10;22.60;;;;;;;1.76;88.70;101095.38;210309;1325;139188;-74
2021/11/17 08:52:48;;;;;;;29.80;24.70;;;;;;;1.96;88.39;101096.41;210839;1320;138865;-75
2021/11/17 08:57:52;;;;;;;26.00;22.10;;;;;;;2.13;88.05;101093.09;210167;1323;138540;-75
2021/11/17 09:03:03;;;;;;;30.40;23.90;;;;;;;2.19;88.09;101094.98;210638;1322;138870;-75
2021/11/17 09:08:06;;;;;;;26.20;20.60;;;;;;;2.29;87.88;101088.60;209839;1322;140383;-75
2021/11/17 09:13:08;;;;;;;29.60;22.50;;;;;;;2.35;87.55;101088.25;211093;1323;139331;-74
2021/11/17 09:18:12;;;;;;;24.20;20.70;;;;;;;2.41;87.76;101082.50;210523;1321;139079;-73
2021/11/17 09:23:14;;;;;;;27.90;21.50;;;;;;;2.53;87.71;101080.83;210839;1322;138369;-73
2021/11/17 09:28:16;;;;;;;28.20;22.80;;;;;;;2.65;87.48;101070.23;209913;1322;138248;-75
2021/11/17 09:33:23;;;;;;;21.50;18.00;;;;;;;2.85;87.06;101064.64;210096;1323;138837;-75
2021/11/17 09:38:29;;;;;;;21.80;19.20;;;;;;;3.04;86.48;101061.05;208817;1323;139361;-76
2021/11/17 09:43:40;;;;;;;27.20;20.80;;;;;;;3.15;86.44;101053.11;209977;1322;138457;-74
2021/11/17 09:48:44;;;;;;;28.10;24.30;;;;;;;3.35;86.18;101043.77;211167;1322;138026;-75
2021/11/17 09:54:06;;;;;;;26.10;20.10;;;;;;;3.48;86.05;101037.04;210541;1322;138871;-74
2021/11/17 09:59:38;;;;;;;24.50;20.00;;;;;;;3.62;85.85;101030.84;209538;1322;139013;-73
2021/11/17 10:04:57;;;;;;;27.60;21.30;;;;;;;3.92;85.40;101031.42;210474;1309;138597;-75
2021/11/17 10:15:41;;;;;;;23.30;19.80;;;;;;;4.36;84.99;101020.66;209284;1322;138712;-75
2021/11/17 10:20:50;;;;;;;22.30;18.10;;;;;;;4.62;83.02;101020.52;209434;1322;139421;-75
2021/11/17 10:25:54;;;;;;;21.10;17.90;;;;;;;4.93;81.82;101013.97;209575;1322;139286;-74
2021/11/17 10:31:13;;;;;;;25.60;20.60;;;;;;;5.10;80.83;101012.49;209585;1322;140671;-74
2021/11/17 10:36:28;;;;;;;27.60;19.60;;;;;;;5.13;80.42;101009.86;210285;1322;138764;-74
2021/11/17 10:41:34;;;;;;;23.80;19.90;;;;;;;5.17;80.02;101011.52;210450;1322;137892;-76
2021/11/17 10:46:59;;;;;;;23.50;18.70;;;;;;;5.24;79.55;101007.23;210581;1312;138626;-74
2021/11/17 10:52:06;;;;;;;20.80;17.90;;;;;;;5.37;79.70;101007.03;209867;1315;139132;-76
2021/11/17 10:57:16;;;;;;;25.10;19.50;;;;;;;5.52;79.18;101001.95;210237;1320;139216;-75
2021/11/17 11:02:18;;;;;;;22.80;19.30;;;;;;;5.72;78.40;101002.13;210373;1326;138344;-74
2021/11/17 11:07:53;;;;;;;21.80;18.40;;;;;;;6.34;76.30;101001.59;209870;1326;138625;-75
2021/11/17 11:12:58;;;;;;;20.70;17.60;;;;;;;7.25;72.89;100996.42;209881;1323;138299;-78
2021/11/17 11:18:09;;;;;;;24.30;20.10;;;;;;;8.10;69.65;100993.48;210120;1320;138983;-75
2021/11/17 11:23:15;;;;;;;20.30;18.20;;;;;;;7.32;71.58;100993.98;210167;1323;139171;-74
2021/11/17 11:28:22;;;;;;;23.50;20.30;;;;;;;6.50;74.77;100990.52;210663;1323;138636;-74
2021/11/17 11:33:48;;;;;;;19.80;17.80;;;;;;;6.34;76.16;100983.42;209760;1324;138513;-71
2021/11/17 11:38:59;;;;;;;25.20;20.80;;;;;;;7.00;73.55;100967.48;210556;1320;138526;-76
2021/11/17 11:44:26;;;;;;;;;;;;;;;7.13;73.09;100961.44;210385;1320;138406;-74
2021/11/17 11:49:47;;;;;;;21.50;19.20;;;;;;;7.08;73.62;100956.52;210270;1320;124477;-75
2021/11/17 11:54:55;;;;;;;28.70;24.10;;;;;;;6.90;73.63;100951.46;210915;1320;138796;-76
2021/11/17 12:00:12;;;;;;;21.90;19.60;;;;;;;6.60;75.13;100956.80;211013;1320;139511;-76
2021/11/17 12:05:26;;;;;;;24.60;21.60;;;;;;;7.03;74.58;100946.58;210407;1320;139843;-75
2021/11/17 12:10:32;;;;;;;22.50;19.60;;;;;;;7.55;72.49;100948.38;209897;1326;139082;-76
2021/11/17 12:15:53;;;;;;;22.80;20.30;;;;;;;7.31;73.35;100935.89;210043;1323;138943;-73
2021/11/17 12:21:01;;;;;;;24.60;20.10;;;;;;;7.34;73.40;100927.91;212488;1310;138283;-76
2021/11/17 12:26:12;;;;;;;27.40;23.60;;;;;;;7.50;73.01;100922.08;210795;1310;138716;-75
2021/11/17 12:31:24;;;;;;;25.00;20.90;;;;;;;7.52;72.29;100913.86;211277;1322;138863;-76
2021/11/17 12:36:36;;;;;;;20.40;18.30;;;;;;;7.50;72.32;100909.34;209764;1322;139314;-75
2021/11/17 12:41:38;;;;;;;23.80;19.30;;;;;;;7.59;71.75;100905.27;209675;1322;138950;-75
2021/11/17 12:52:05;;;;;;;22.90;19.40;;;;;;;7.76;70.94;100903.79;210327;1322;138769;-76
2021/11/17 12:57:22;;;;;;;24.10;21.60;;;;;;;8.29;68.61;100899.26;210127;1322;138625;-75
2021/11/17 13:02:27;;;;;;;25.80;23.00;;;;;;;7.84;70.67;100892.74;210041;1323;138895;-75
2021/11/17 13:07:43;;;;;;;28.70;24.60;;;;;;;6.70;76.58;100893.94;211516;1309;139573;-75
2021/11/17 13:12:44;;;;;;;25.60;22.50;;;;;;;6.19;79.01;100893.36;210048;1320;138618;-75
2021/11/17 13:17:51;;;;;;;26.90;23.00;;;;;;;5.85;80.37;100899.80;211193;1310;138991;-75
2021/11/17 13:23:10;;;;;;;26.20;23.40;;;;;;;5.65;81.22;100892.13;211682;1323;138997;-76
2021/11/17 13:28:40;;;;;;;28.10;25.10;;;;;;;5.72;81.38;100894.79;212332;1322;139540;-74
2021/11/17 13:33:54;;;;;;;29.50;24.50;;;;;;;5.74;80.99;100898.52;212710;1309;138516;-75
2021/11/17 13:38:57;;;;;;;27.00;23.60;;;;;;;5.47;82.18;100899.38;211839;1322;138675;-76
2021/11/17 13:44:00;;;;;;;26.80;23.80;;;;;;;5.60;81.69;100902.29;210246;1322;139439;-73
2021/11/17 13:49:04;;;;;;;30.40;26.60;;;;;;;5.83;80.72;100897.88;210758;1322;138939;-76
2021/11/17 13:54:06;;;;;;;33.30;27.40;;;;;;;5.83;80.63;100895.61;210349;1322;138391;-75
2021/11/17 13:59:08;;;;;;;30.00;25.90;;;;;;;5.57;81.15;100902.54;210334;1322;138763;-74
2021/11/17 14:04:11;;;;;;;25.70;23.00;;;;;;;5.26;82.26;100902.95;210175;1322;138657;-69
2021/11/17 14:09:12;;;;;;;28.20;24.40;;;;;;;5.15;82.90;100904.55;210618;1322;138875;-74
2021/11/17 14:14:19;;;;;;;32.60;26.20;;;;;;;5.06;83.10;100907.46;210423;1323;139186;-76
2021/11/17 14:19:29;;;;;;;25.40;22.30;;;;;;;5.00;83.29;100905.79;210425;1310;139219;-75
2021/11/17 14:24:35;;;;;;;28.70;24.70;;;;;;;4.85;83.81;100902.07;210946;1319;138307;-75
2021/11/17 14:29:46;;;;;;;32.20;25.00;;;;;;;4.67;84.25;100899.61;210728;1310;138702;-76
2021/11/17 14:34:53;;;;;;;32.50;24.80;;;;;;;4.55;84.86;100897.77;210406;1326;139209;-74
2021/11/17 14:39:58;;;;;;;32.30;25.10;;;;;;;4.47;85.10;100897.80;211372;1320;138763;-77
2021/11/17 14:45:07;;;;;;;36.30;28.40;;;;;;;4.45;85.11;100898.83;210537;1326;139331;-76
2021/11/17 14:50:14;;;;;;;31.80;25.60;;;;;;;4.41;85.13;100898.52;211034;1324;138669;-76
2021/11/17 14:55:23;;;;;;;33.10;28.20;;;;;;;4.32;85.62;100891.83;211920;1309;138972;-75
2021/11/17 15:00:35;;;;;;;40.00;31.00;;;;;;;4.23;86.01;100891.70;209699;1322;139248;-75
2021/11/17 15:05:37;;;;;;;44.90;34.20;;;;;;;4.06;86.77;100892.45;211007;1319;138926;-76
2021/11/17 15:10:39;;;;;;;47.30;36.70;;;;;;;3.93;87.36;100891.92;210949;1322;139352;-75
2021/11/17 15:15:48;;;;;;;43.20;34.30;;;;;;;3.87;87.75;100893.67;209348;1322;861732;-75
2021/11/17 15:20:50;;;;;;;45.40;35.90;;;;;;;3.83;87.83;100901.64;211044;1322;138787;-76
2021/11/17 15:25:52;;;;;;;45.30;37.00;;;;;;;3.79;88.04;100898.38;210922;1322;139220;-79
2021/11/17 15:30:59;;;;;;;45.80;36.40;;;;;;;3.70;88.31;100891.61;210667;1322;138888;-76
2021/11/17 15:36:04;;;;;;;43.40;33.80;;;;;;;3.68;88.58;100894.89;212006;1309;138997;-76
2021/11/17 15:41:08;;;;;;;45.90;35.90;;;;;;;3.67;88.58;100892.33;212289;1310;138931;-77
2021/11/17 15:46:12;;;;;;;57.00;38.40;;;;;;;3.75;88.37;100888.36;211458;1320;138041;-77
2021/11/17 15:51:27;;;;;;;47.40;36.20;;;;;;;3.77;87.97;100885.25;211368;1319;138048;-71
2021/11/17 15:56:31;;;;;;;50.00;37.00;;;;;;;3.72;88.32;100877.06;211582;1319;139272;-76
2021/11/17 16:01:32;;;;;;;57.30;40.10;;;;;;;3.63;88.65;100878.28;210746;1319;137791;-75
2021/11/17 16:07:10;;;;;;;54.90;38.70;;;;;;;3.63;88.55;100877.73;210829;1322;140374;-75
2021/11/17 16:12:18;;;;;;;51.40;38.70;;;;;;;3.72;88.44;100878.09;210546;1323;138326;-77
2021/11/17 16:17:24;;;;;;;49.50;37.20;;;;;;;3.69;88.56;100875.32;211406;1309;137875;-75
2021/11/17 16:22:35;;;;;;;52.20;39.20;;;;;;;3.63;88.89;100869.56;210807;1322;138497;-74
2021/11/17 16:27:43;;;;;;;52.00;36.40;;;;;;;3.60;88.89;100872.02;209742;1323;138859;-76
2021/11/17 16:32:47;;;;;;;48.80;38.50;;;;;;;3.61;88.90;100882.22;211146;1323;138571;-78
2021/11/17 16:37:50;;;;;;;55.90;41.90;;;;;;;3.59;89.29;100874.00;210638;1322;138743;-76
2021/11/17 16:42:55;;;;;;;56.20;40.00;;;;;;;3.63;89.09;100880.55;210426;1319;138565;-75
2021/11/17 16:48:02;;;;;;;55.60;39.60;;;;;;;3.58;89.41;100876.83;210742;1310;138312;-79
2021/11/17 16:53:04;;;;;;;54.00;40.80;;;;;;;3.59;89.60;100877.29;210577;1319;139256;-75
2021/11/17 16:58:06;;;;;;;52.50;39.30;;;;;;;3.61;89.59;100879.44;210672;1326;138481;-78
2021/11/17 17:03:14;;;;;;;65.70;45.00;;;;;;;3.63;89.76;100884.04;211101;1320;138782;-74
2021/11/17 17:08:20;;;;;;;64.00;43.00;;;;;;;3.64;89.84;100888.69;210542;1310;137833;-72
2021/11/17 17:13:29;;;;;;;56.70;42.40;;;;;;;3.66;89.77;100893.23;210135;1322;138929;-75
2021/11/17 17:18:42;;;;;;;58.80;40.30;;;;;;;3.73;89.61;100889.34;210199;1322;139662;-75
2021/11/17 17:23:44;;;;;;;50.80;38.20;;;;;;;3.80;89.20;100890.30;210753;1322;138689;-73
2021/11/17 17:28:50;;;;;;;60.00;43.20;;;;;;;3.82;89.29;100887.74;211245;1322;139036;-75
2021/11/17 17:33:58;;;;;;;58.60;43.90;;;;;;;3.83;89.17;100890.30;210012;1326;138693;-72
2021/11/17 17:39:00;;;;;;;58.30;43.70;;;;;;;3.83;89.25;100896.58;211276;1312;138342;-73
2021/11/17 17:44:03;;;;;;;57.00;43.00;;;;;;;3.86;89.16;100889.71;214013;1312;139021;-75
2021/11/17 17:49:05;;;;;;;53.70;39.40;;;;;;;3.94;89.00;100888.20;213694;1326;139097;-75
2021/11/17 17:54:12;;;;;;;59.00;42.90;;;;;;;3.96;88.78;100883.88;214549;1322;139372;-76
2021/11/17 17:59:20;;;;;;;49.10;36.40;;;;;;;3.96;89.01;100884.91;213941;1314;138199;-75
2021/11/17 18:04:22;;;;;;;58.30;43.20;;;;;;;3.94;89.15;100882.40;213126;1329;138887;-76
2021/11/17 18:09:25;;;;;;;56.00;41.80;;;;;;;3.98;89.20;100880.63;215833;1320;138960;-73
2021/11/17 18:14:27;;;;;;;52.20;39.60;;;;;;;4.04;89.13;100883.87;215941;1312;139005;-75
2021/11/17 18:19:28;;;;;;;51.20;39.00;;;;;;;4.10;88.95;100887.11;215801;1323;138758;-76
2021/11/17 18:24:30;;;;;;;53.40;42.60;;;;;;;4.16;88.82;100882.20;215285;1320;138742;-75
2021/11/17 18:29:32;;;;;;;62.60;44.50;;;;;;;4.21;88.82;100880.88;214787;1326;139478;-74
2021/11/17 18:34:37;;;;;;;54.80;38.60;;;;;;;4.19;88.92;100881.34;215676;1323;138649;-75
2021/11/17 18:39:43;;;;;;;58.10;44.40;;;;;;;4.19;89.05;100887.93;215727;1320;138680;-74
2021/11/17 18:44:45;;;;;;;55.70;40.30;;;;;;;4.25;88.89;100887.77;215855;1320;139255;-74
2021/11/17 18:49:47;;;;;;;49.70;40.80;;;;;;;4.31;88.86;100890.48;215382;1326;139656;-73
2021/11/17 18:54:51;;;;;;;52.50;40.40;;;;;;;4.38;88.86;100894.91;214894;1323;139881;-73
2021/11/17 18:59:52;;;;;;;50.30;38.70;;;;;;;4.38;88.72;100891.98;215591;1317;138631;-74
2021/11/17 19:04:55;;;;;;;56.70;41.70;;;;;;;4.37;88.78;100890.25;215745;1320;138075;-77
2021/11/17 19:09:57;;;;;;;52.10;38.30;;;;;;;4.39;88.92;100892.27;215471;1322;138868;-76
2021/11/17 19:14:59;;;;;;;52.50;37.90;;;;;;;4.45;88.74;100892.02;215373;1319;139294;-74
2021/11/17 19:20:00;;;;;;;58.60;43.00;;;;;;;4.50;88.88;100896.94;215743;1324;138995;-79
2021/11/17 19:25:07;;;;;;;58.40;44.70;;;;;;;4.52;88.76;100893.64;215537;1320;139264;-75
2021/11/17 19:30:10;;;;;;;57.10;42.50;;;;;;;4.51;88.97;100881.86;215471;1326;138004;-77
2021/11/17 19:35:13;;;;;;;51.60;41.30;;;;;;;4.52;89.03;100885.60;214519;1324;138691;-74
2021/11/17 19:40:16;;;;;;;53.00;40.20;;;;;;;4.57;89.04;100890.81;215350;1321;139053;-74
2021/11/17 19:45:17;;;;;;;56.20;43.40;;;;;;;4.63;88.97;100887.11;213096;1326;139231;-75
2021/11/17 19:50:19;;;;;;;56.00;42.90;;;;;;;4.65;88.98;100882.83;215628;1320;138756;-76
2021/11/17 19:55:22;;;;;;;55.10;40.90;;;;;;;4.60;89.38;100884.69;214286;1326;139094;-74
2021/11/17 20:00:27;;;;;;;53.50;41.50;;;;;;;4.61;89.48;100888.49;214522;1320;138747;-76
2021/11/17 20:05:29;;;;;;;51.80;40.00;;;;;;;4.65;89.39;100894.30;215669;1317;139611;-78
2021/11/17 20:10:32;;;;;;;55.70;42.30;;;;;;;4.70;89.31;100901.17;215641;1324;138822;-76
2021/11/17 20:15:45;;;;;;;57.60;44.30;;;;;;;4.68;89.26;100906.02;213389;1309;138771;-77
2021/11/17 20:20:51;;;;;;;55.20;40.60;;;;;;;4.64;89.64;100906.43;215650;1320;138327;-74
2021/11/17 20:25:53;;;;;;;57.10;40.90;;;;;;;4.64;89.94;100909.02;215815;1316;139696;-74
2021/11/17 20:30:57;;;;;;;50.30;40.90;;;;;;;4.69;90.13;100911.16;215731;1320;139003;-76
2021/11/17 20:36:01;;;;;;;54.50;41.80;;;;;;;4.73;90.21;100913.70;215762;1320;139680;-74
2021/11/17 20:41:11;;;;;;;57.50;44.40;;;;;;;4.73;90.36;100914.95;216049;1319;138275;-76
2021/11/17 20:46:13;;;;;;;57.50;43.30;;;;;;;4.71;90.65;100913.01;216036;1323;138074;-75
2021/11/17 20:51:16;;;;;;;55.70;42.10;;;;;;;4.70;90.81;100909.23;213223;1324;139171;-74
2021/11/17 20:56:18;;;;;;;55.30;41.80;;;;;;;4.75;91.11;100899.98;216085;1319;140000;-75
2021/11/17 21:01:22;;;;;;;56.50;44.40;;;;;;;4.81;91.15;100899.74;215909;1322;139235;-72
2021/11/17 21:06:24;;;;;;;59.50;46.70;;;;;;;4.82;91.19;100900.39;214847;1319;138151;-73
2021/11/17 21:11:32;;;;;;;60.70;43.80;;;;;;;4.78;91.50;100900.28;215779;1320;139577;-74
2021/11/17 21:16:39;;;;;;;50.50;40.00;;;;;;;4.80;91.69;100899.60;214028;1319;139163;-73
2021/11/17 21:21:45;;;;;;;58.00;43.50;;;;;;;4.83;91.80;100903.09;215921;1319;139006;-75
2021/11/17 21:26:51;;;;;;;62.00;46.30;;;;;;;4.83;92.10;100899.25;215757;1320;138541;-76
2021/11/17 21:31:57;;;;;;;58.10;44.30;;;;;;;4.81;92.21;100903.23;215491;1322;138796;-73
2021/11/17 21:37:03;;;;;;;55.40;42.00;;;;;;;4.90;92.61;100901.55;216066;1319;139024;-74
2021/11/17 21:42:12;;;;;;;59.10;43.70;;;;;;;5.03;91.78;100897.66;215407;1310;138563;-75
2021/11/17 21:47:14;;;;;;;;;;;;;;;5.10;91.41;100891.28;215456;1322;138510;-74
2021/11/17 21:52:16;;;;;;;56.40;39.80;;;;;;;5.14;91.24;100885.73;215326;1322;125568;-73
2021/11/17 21:57:18;;;;;;;51.90;40.30;;;;;;;5.17;90.99;100882.92;215820;1324;139207;-75
2021/11/17 22:02:24;;;;;;;51.30;38.40;;;;;;;5.24;90.54;100883.36;215070;1322;138632;-74
2021/11/17 22:07:32;;;;;;;51.50;37.20;;;;;;;5.23;90.18;100884.25;215298;1307;139051;-74
2021/11/17 22:12:34;;;;;;;51.30;38.40;;;;;;;5.22;90.19;100885.89;214269;1323;139469;-75
2021/11/17 22:17:39;;;;;;;51.10;37.80;;;;;;;5.30;90.11;100885.04;213292;1328;139343;-76
2021/11/17 22:22:45;;;;;;;54.00;39.60;;;;;;;5.36;89.27;100880.95;215578;1323;138564;-75
2021/11/17 22:27:47;;;;;;;50.70;38.00;;;;;;;5.32;89.57;100877.68;215598;1325;138847;-74
2021/11/17 22:32:49;;;;;;;51.80;40.70;;;;;;;5.31;89.47;100881.08;215854;1322;139346;-77
2021/11/17 22:37:52;;;;;;;53.80;39.90;;;;;;;5.33;89.67;100881.13;215411;1324;138965;-75
2021/11/17 22:42:53;;;;;;;49.70;39.30;;;;;;;5.32;89.46;100873.86;215750;1322;140913;-75
2021/11/17 22:47:57;;;;;;;49.70;35.70;;;;;;;5.28;89.88;100876.43;216026;1320;139455;-74
2021/11/17 22:56:38;;;;;;;52.00;38.40;;;;;;;5.36;88.93;100875.34;205943;1355;635359;-74
2021/11/17 23:01:45;;;;;;;47.80;35.40;;;;;;;5.36;88.55;100878.32;208842;1330;139398;-74
2021/11/17 23:06:47;;;;;;;50.50;37.80;;;;;;;5.39;88.38;100881.06;207726;1329;138358;-74
2021/11/17 23:11:49;;;;;;;54.10;38.60;;;;;;;5.52;88.53;100878.54;209316;1328;138284;-75
2021/11/17 23:16:51;;;;;;;49.40;35.40;;;;;;;5.55;88.12;100870.84;207655;1329;139282;-74
2021/11/17 23:21:56;;;;;;;46.10;33.70;;;;;;;5.63;87.28;100873.60;209607;1329;138519;-74
2021/11/17 23:26:58;;;;;;;48.00;35.30;;;;;;;5.56;87.02;100852.05;210195;1320;138629;-72
2021/11/17 23:37:27;;;;;;;43.20;29.50;;;;;;;5.45;86.37;100858.29;209863;1331;138610;-70
2021/11/17 23:42:38;;;;;;;38.80;27.80;;;;;;;5.38;86.51;100859.45;208651;1335;138319;-75
2021/11/17 23:47:45;;;;;;;32.70;25.10;;;;;;;5.35;86.70;100871.02;207279;1334;140366;-74
2021/11/17 23:52:48;;;;;;;33.70;25.70;;;;;;;5.36;86.47;100870.62;207071;1335;138361;-72
2021/11/17 23:57:50;;;;;;;31.30;22.80;;;;;;;5.30;86.22;100877.00;207470;1335;139910;-74
